createdAt,value
2019-06-10T00:04:53.569Z,0.00
2019-06-10T00:09:53.514Z,0.01
2019-06-10T00:14:53.478Z,0.00
2019-06-10T00:19:53.431Z,0.00
2019-06-10T00:24:53.363Z,0.00
2019-06-10T00:29:53.327Z,0.00
2019-06-10T00:34:53.239Z,0.00
2019-06-10T00:39:53.196Z,0.00
2019-06-10T00:44:53.166Z,0.00
2019-06-10T00:49:53.165Z,0.00
2019-06-10T00:54:53.030Z,0.00
2019-06-10T00:59:52.957Z,0.00
2019-06-10T01:04:52.962Z,0.00
2019-06-10T01:09:52.865Z,0.00
2019-06-10T01:14:52.875Z,0.00
2019-06-10T01:19:52.772Z,0.00
2019-06-10T01:24:52.749Z,0.00
2019-06-10T01:29:52.647Z,0.01
2019-06-10T01:34:52.581Z,0.00
2019-06-10T01:39:52.551Z,0.00
2019-06-10T01:44:52.468Z,0.00
2019-06-10T01:49:52.424Z,0.00
2019-06-10T01:54:52.414Z,0.00
2019-06-10T01:59:52.279Z,0.00
2019-06-10T02:04:52.252Z,0.00
2019-06-10T02:09:52.191Z,0.02
2019-06-10T02:14:52.149Z,0.00
2019-06-10T02:19:52.066Z,0.01
2019-06-10T02:24:52.023Z,0.01
2019-06-10T02:29:51.985Z,0.00
2019-06-10T02:35:03.652Z,0.02
2019-06-10T02:39:54.190Z,0.00
2019-06-10T02:44:54.068Z,0.00
2019-06-10T02:49:59.058Z,0.00
2019-06-10T02:54:53.664Z,0.00
2019-06-10T14:30:19.703Z,0.97
2019-06-10T14:35:19.702Z,0.36
2019-06-10T14:40:20.814Z,1.12
2019-06-10T14:45:19.673Z,1.84
2019-06-10T14:50:19.620Z,2.85
2019-06-10T14:55:19.503Z,1.57
2019-06-10T15:00:19.586Z,2.02
2019-06-10T15:05:19.781Z,2.84
2019-06-10T15:10:20.202Z,2.18
2019-06-10T15:15:21.045Z,2.67
2019-06-10T15:20:19.947Z,4.76
2019-06-10T15:25:27.519Z,2.45
2019-06-10T15:30:26.170Z,1.79
2019-06-10T15:35:23.752Z,0.66
2019-06-10T15:40:19.791Z,0.27
2019-06-10T15:45:19.937Z,0.46
2019-06-10T15:50:20.396Z,1.78
2019-06-10T15:55:40.700Z,2.54
2019-06-10T16:00:22.278Z,0.34
2019-06-10T16:05:21.340Z,1.19
2019-06-10T16:10:21.295Z,2.02
2019-06-10T16:15:19.476Z,0.26
2019-06-10T16:20:19.406Z,0.79
2019-06-10T16:25:19.909Z,2.72
2019-06-10T16:30:20.164Z,5.54
2019-06-10T16:35:20.829Z,4.13
2019-06-10T16:40:23.842Z,1.79
2019-06-10T16:45:27.680Z,1.19
2019-06-10T16:50:24.422Z,0.01
2019-06-10T16:55:22.666Z,0.79
2019-06-10T17:00:23.084Z,1.46
2019-06-10T17:05:25.200Z,0.98
2019-06-10T17:10:23.940Z,0.21
2019-06-10T17:15:21.586Z,0.51
2019-06-10T17:20:23.605Z,0.18
2019-06-10T17:25:23.561Z,0.03
2019-06-10T17:30:23.376Z,1.02
2019-06-10T17:35:21.986Z,1.31
2019-06-10T17:40:23.413Z,1.94
2019-06-10T17:45:24.521Z,1.08
2019-06-10T17:50:22.313Z,1.77
2019-06-10T17:55:24.887Z,1.40
2019-06-10T18:00:23.436Z,1.83
2019-06-10T18:05:22.483Z,2.86
2019-06-10T18:10:22.784Z,3.07
2019-06-10T18:15:22.205Z,4.54
2019-06-10T18:20:22.605Z,7.89
2019-06-10T18:25:22.967Z,6.71
2019-06-10T18:30:22.197Z,8.19
2019-06-10T18:35:22.397Z,7.54
2019-06-10T18:40:20.940Z,8.28
2019-06-10T18:45:22.391Z,5.78
2019-06-10T18:50:22.119Z,4.72
2019-06-10T18:55:22.609Z,4.27
2019-06-10T19:00:22.986Z,2.56
2019-06-10T19:05:22.393Z,3.03
2019-06-10T19:10:22.910Z,2.70
2019-06-10T19:15:20.695Z,3.60
2019-06-10T19:20:20.629Z,3.13
2019-06-10T19:25:20.682Z,2.42
2019-06-10T19:30:23.118Z,1.35
2019-06-10T19:35:22.364Z,1.72
2019-06-10T19:40:22.767Z,4.38
2019-06-10T19:45:22.751Z,3.05
2019-06-10T19:50:20.260Z,5.01
2019-06-10T19:55:20.214Z,3.44
2019-06-10T20:00:22.046Z,1.59
2019-06-10T20:05:20.161Z,0.83
2019-06-10T20:10:20.207Z,0.59
2019-06-10T20:15:22.414Z,1.16
2019-06-10T20:20:22.646Z,0.93
2019-06-10T20:25:29.591Z,0.82
2019-06-10T20:30:35.351Z,1.74
2019-06-10T20:35:19.901Z,1.89
2019-06-10T20:40:19.854Z,1.89
2019-06-10T20:45:22.929Z,3.20
2019-06-10T20:50:19.686Z,4.79
2019-06-10T20:55:19.764Z,2.64
2019-06-10T21:00:23.023Z,2.33
2019-06-10T21:05:22.364Z,3.24
2019-06-10T21:10:19.449Z,2.70
2019-06-10T21:15:22.765Z,3.54
2019-06-10T21:20:22.488Z,3.51
2019-06-10T21:25:19.336Z,3.89
2019-06-10T21:30:34.059Z,3.77
2019-06-10T21:35:20.313Z,3.21
2019-06-10T21:40:19.268Z,3.62
2019-06-10T21:45:19.304Z,3.99
2019-06-10T21:50:19.145Z,4.43
2019-06-10T21:55:19.103Z,4.10
2019-06-10T22:00:18.994Z,3.75
2019-06-10T22:05:18.923Z,4.66
2019-06-10T22:10:18.886Z,6.18
2019-06-10T22:15:18.842Z,5.81
2019-06-10T22:20:18.896Z,4.51
2019-06-10T22:25:18.765Z,4.70
2019-06-10T22:30:18.694Z,5.46
2019-06-10T22:35:18.710Z,4.22
2019-06-10T22:40:18.653Z,4.19
2019-06-10T22:45:19.098Z,3.55
2019-06-10T22:50:18.653Z,3.47
2019-06-10T22:55:21.840Z,4.70
2019-06-10T23:00:22.280Z,3.94
2019-06-10T23:05:18.484Z,3.59
2019-06-10T23:10:18.371Z,4.50
2019-06-10T23:15:18.332Z,4.46
2019-06-10T23:20:18.277Z,3.73
2019-06-10T23:25:18.206Z,3.56
2019-06-10T23:30:18.237Z,2.99
2019-06-10T23:35:18.108Z,3.31
2019-06-10T23:40:18.061Z,3.14
2019-06-10T23:45:18.007Z,2.50
2019-06-10T23:50:17.951Z,2.64
2019-06-10T23:55:18.121Z,3.53
